Flight Track Log - Related Links

Times and Time Zones

All times are in EDT time to prevent confusion due to time zone crossing. See the N3746H flight status page for this flight to view local times or setup timezone preferences in your user account.

Time Position Orientation Groundspeed Altitude Reporting Facility
EDT Latitude Longitude Course Direction KTS MPH feet Rate Location/Type
Thu 12:54:00 PM 19.7139 -69.8649 352° North  Level Estimated
Thu 12:54:03 PM 19.1925 -69.8500 352° North 462 532 21,000  Level Miami Center
Thu 12:55:00 PM 19.8306 -69.8828 352° North  Level Estimated
Thu 12:55:03 PM 19.3028 -69.8950 339° North 437 503 23,000  Level Miami Center
Thu 12:56:00 PM 19.9473 -69.9008 352° North  Level Estimated
Thu 12:56:03 PM 19.4108 -69.9425 337° Northwest 425 489 24,400  Level Miami Center
Thu 12:57:00 PM 20.0641 -69.9189 352° North  Level Estimated
Thu 12:57:03 PM 19.5233 -69.9939 337° Northwest 420 483 25,400  Level Miami Center
Thu 12:58:00 PM 20.1808 -69.9369 352° North  Level Estimated
Thu 12:58:03 PM 19.6381 -70.0433 338° Northwest 426 490 26,800  Level Miami Center
Thu 12:59:00 PM 20.2990 -69.9552 352° North  Level Estimated
Thu 12:59:03 PM 19.7553 -70.0597 353° North 426 490 28,200  Level Miami Center
Thu 01:00:03 PM 19.8772 -70.0383 North 426 490 29,600 1,300 Climbing Miami Center
Thu 01:01:03 PM 19.9992 -70.0147 10° North 426 490 30,800 1,250 Climbing Miami Center
Thu 01:02:03 PM 20.1189 -69.9933 10° North 431 496 32,100 1,050 Climbing Miami Center
Thu 01:03:03 PM 20.2408 -69.9742 North 436 502 32,900 700 Climbing Miami Center
Thu 01:04:03 PM 20.3650 -69.9503 10° North 442 509 33,500 550 Climbing Miami Center
Thu 01:05:03 PM 20.4908 -69.9264 10° North 447 514 34,000 250 Climbing Miami Center
Thu 01:06:03 PM 20.6169 -69.9044 North 447 514 34,000  Level Miami Center
Thu 01:07:03 PM 20.7408 -69.8806 10° North 453 521 34,000  Level Miami Center
Thu 01:08:03 PM 20.8650 -69.8586 North 448 516 34,000  Level Miami Center
Thu 01:09:03 PM 20.9828 -69.8369 10° North 442 509 34,000  Level Miami Center
Thu 01:10:03 PM 21.1006 -69.8153 10° North 436 502 34,000  Level Miami Center
Thu 01:11:03 PM 21.2183 -69.7939 10° North 436 502 34,000  Level Miami Center
Thu 01:12:03 PM 21.3403 -69.7739 North 436 502 34,000  Level Miami Center
Thu 01:13:03 PM 21.4622 -69.7519 10° North 435 501 34,000  Level Miami Center
Thu 01:14:03 PM 21.5781 -69.7303 10° North 435 501 34,000  Level Miami Center
Thu 01:15:03 PM 21.6997 -69.7058 11° North 435 501 34,000  Level Miami Center
Thu 01:16:03 PM 21.8197 -69.6861 North 435 501 34,000  Level Miami Center
Thu 01:17:03 PM 21.9375 -69.6642 10° North 435 501 34,000  Level Miami Center
Thu 01:18:03 PM 22.0575 -69.6442 North 430 495 34,000  Level Miami Center
Thu 01:19:03 PM 22.1753 -69.6219 10° North 430 495 34,000  Level Miami Center
Thu 01:20:03 PM 22.2889 -69.6000 10° North 424 488 34,000  Level Miami Center
Thu 01:21:03 PM 22.4067 -69.5800 North 424 488 34,000  Level Miami Center
Thu 01:22:03 PM 22.5203 -69.5581 10° North 424 488 34,000  Level Miami Center
Thu 01:23:03 PM 22.6361 -69.5381 North 424 488 34,000  Level Miami Center
Thu 01:24:03 PM 22.7456 -69.5139 12° North 419 482 34,000  Level Miami Center
Thu 01:25:03 PM 22.8614 -69.4961 North 414 476 34,000  Level Miami Center
Thu 01:26:03 PM 22.9731 -69.4761 North 414 476 34,000  Level Miami Center
Thu 01:27:03 PM 23.0889 -69.4561 North 416 479 34,000  Level Miami Center
Thu 01:28:03 PM 23.1917 -69.4275 14° North 404 465 34,000  Level Miami Center
Thu 01:29:03 PM 23.3097 -69.4139 North 404 465 34,000  Level Miami Center
Thu 01:30:03 PM 23.4214 -69.3939 North 409 471 34,000  Level Miami Center
Thu 01:31:03 PM 23.5350 -69.3714 10° North 409 471 34,000  Level Miami Center
Thu 01:32:03 PM 23.6486 -69.3511 North 409 471 34,000  Level Miami Center
Thu 01:33:03 PM 23.7644 -69.3283 10° North 409 471 34,000  Level Miami Center
Thu 01:34:03 PM 23.8800 -69.3078 North 409 471 34,000  Level Miami Center
Thu 01:35:03 PM 23.9978 -69.2828 11° North 415 478 34,000  Level Miami Center
Thu 01:36:03 PM 24.1178 -69.2639 North 426 490 34,000  Level Miami Center
Thu 01:37:03 PM 24.2417 -69.2406 10° North 433 498 34,000  Level Miami Center
Thu 01:38:03 PM 24.3614 -69.2172 10° North 438 504 34,000  Level Miami Center
Thu 01:39:03 PM 24.4833 -69.1939 10° North 438 504 34,000  Level Miami Center
Thu 01:40:03 PM 24.6053 -69.1747 North 444 511 34,000  Level Miami Center
Thu 01:41:03 PM 24.7250 -69.1492 11° North 438 504 34,000  Level Miami Center
Thu 01:42:03 PM 24.8444 -69.1211 12° North 421 484 34,000  Level Miami Center
Thu 01:43:03 PM 24.9708 -69.1039 North 445 512 34,000  Level Miami Center
Thu 01:43:24 PM 25.0000 -69.1000 349° North 419 482 34,000  Level New York Oceanic (ODAPS)
Thu 01:50:00 PM 25.8406 -69.2742 349° North 419 482 34,000  Level FlightAware Transoceanic
Thu 01:51:00 PM 25.9607 -69.2992 349° North 419 482 34,000  Level FlightAware Transoceanic
Thu 01:52:00 PM 26.0808 -69.3244 349° North 419 482 34,000  Level FlightAware Transoceanic
Thu 01:53:00 PM 26.2008 -69.3496 349° North 419 482 34,000  Level FlightAware Transoceanic
Thu 01:54:00 PM 26.3209 -69.3748 349° North 419 482 34,000  Level FlightAware Transoceanic
Thu 01:55:00 PM 26.4409 -69.4001 349° North 419 482 34,000  Level FlightAware Transoceanic
Thu 01:56:00 PM 26.5610 -69.4254 349° North 419 482 34,000  Level FlightAware Transoceanic
Thu 01:57:00 PM 26.6810 -69.4508 349° North 419 482 34,000  Level FlightAware Transoceanic
Thu 01:58:00 PM 26.8011 -69.4763 349° North 419 482 34,000  Level FlightAware Transoceanic
Thu 01:58:48 PM 26.7167 -69.4500 349° North 446 513 34,000  Level New York Oceanic (ODAPS)
Thu 01:59:00 PM 26.9211 -69.5018 349° North 419 482 34,000  Level FlightAware Transoceanic
Thu 02:00:00 PM 27.0411 -69.5273 349° North 419 482 34,000  Level FlightAware Transoceanic
Thu 02:01:00 PM 27.1612 -69.5529 349° North 419 482 34,000  Level FlightAware Transoceanic
Thu 02:02:00 PM 27.2812 -69.5786 349° North 419 482 34,000  Level FlightAware Transoceanic
Thu 02:03:00 PM 27.4012 -69.6043 349° North 419 482 34,000  Level FlightAware Transoceanic
Thu 02:04:00 PM 27.5212 -69.6301 349° North 419 482 34,000  Level FlightAware Transoceanic
Thu 02:05:00 PM 27.5765 -69.6355 349° North 446 513 34,000  Level FlightAware Transoceanic
Thu 02:06:00 PM 27.6994 -69.6623 349° North 446 513 34,000  Level FlightAware Transoceanic
Thu 02:07:00 PM 27.8222 -69.6891 349° North 446 513 34,000  Level FlightAware Transoceanic
Thu 02:08:00 PM 27.9450 -69.7160 349° North 446 513 34,000  Level FlightAware Transoceanic
Thu 02:09:00 PM 28.0678 -69.7429 349° North 446 513 34,000  Level FlightAware Transoceanic
Thu 02:10:00 PM 28.1906 -69.7699 349° North 446 513 34,000  Level FlightAware Transoceanic
Thu 02:11:00 PM 28.3134 -69.7969 349° North 446 513 34,000  Level FlightAware Transoceanic
Thu 02:12:00 PM 28.4362 -69.8240 349° North 446 513 34,000  Level FlightAware Transoceanic
Thu 02:13:00 PM 28.5589 -69.8512 349° North 446 513 34,000  Level FlightAware Transoceanic
Thu 02:14:00 PM 28.6817 -69.8784 349° North 446 513 34,000  Level FlightAware Transoceanic
Thu 02:15:00 PM 28.8045 -69.9057 349° North 446 513 34,000  Level FlightAware Transoceanic
Thu 02:16:00 PM 28.9273 -69.9331 349° North 446 513 34,000  Level FlightAware Transoceanic
Thu 02:17:00 PM 29.0500 -69.9605 349° North 446 513 34,000  Level FlightAware Transoceanic
Thu 02:18:00 PM 29.1728 -69.9880 349° North 446 513 34,000  Level FlightAware Transoceanic
Thu 02:19:00 PM 29.2955 -70.0156 349° North 446 513 34,000  Level FlightAware Transoceanic
Thu 02:20:00 PM 29.4183 -70.0432 349° North 446 513 34,000  Level FlightAware Transoceanic
Thu 02:21:00 PM 29.5410 -70.0709 349° North 446 513 34,000  Level FlightAware Transoceanic
Thu 02:22:00 PM 29.6637 -70.0987 349° North 446 513 34,000  Level FlightAware Transoceanic
Thu 02:23:00 PM 29.7865 -70.1265 349° North 446 513 34,000  Level FlightAware Transoceanic
Thu 02:24:00 PM 29.9092 -70.1544 349° North 446 513 34,000  Level FlightAware Transoceanic
Thu 02:25:00 PM 30.0319 -70.1824 349° North 446 513 34,000  Level FlightAware Transoceanic
Thu 02:26:00 PM 30.1546 -70.2104 349° North 446 513 34,000  Level FlightAware Transoceanic
Thu 02:27:00 PM 30.2773 -70.2385 349° North 446 513 34,000  Level FlightAware Transoceanic
Thu 02:28:00 PM 30.4000 -70.2667 349° North 446 513 34,000  Level FlightAware Transoceanic
Thu 02:28:18 PM 30.4000 -70.2667 349° North 447 514 34,000  Level New York Oceanic (ODAPS)
Thu 02:29:00 PM 30.5234 -70.2948 349° North 446 513 34,000  Level FlightAware Transoceanic
Thu 02:30:00 PM 30.6468 -70.3229 349° North 446 513 34,000  Level FlightAware Transoceanic
Thu 02:31:00 PM 30.7702 -70.3512 349° North 446 513 34,000  Level FlightAware Transoceanic
Thu 02:32:00 PM 30.8936 -70.3795 349° North 446 513 34,000  Level FlightAware Transoceanic
Thu 02:33:00 PM 31.0170 -70.4079 349° North 446 513 34,000  Level FlightAware Transoceanic
Thu 02:34:00 PM 31.1403 -70.4363 349° North 447 514 34,000  Level FlightAware Transoceanic
Thu 02:35:00 PM 31.2637 -70.4649 349° North 447 514 34,000  Level FlightAware Transoceanic
Thu 02:36:00 PM 31.3871 -70.4935 349° North 447 514 34,000  Level FlightAware Transoceanic
Thu 02:37:00 PM 31.5104 -70.5222 349° North 447 514 34,000  Level FlightAware Transoceanic
Thu 02:38:00 PM 31.6338 -70.5509 349° North 447 514 34,000  Level FlightAware Transoceanic
Thu 02:39:00 PM 31.7571 -70.5798 349° North 447 514 34,000  Level FlightAware Transoceanic
Thu 02:40:00 PM 31.8805 -70.6087 349° North 447 514 34,000  Level FlightAware Transoceanic
Thu 02:41:00 PM 32.0038 -70.6377 349° North 447 514 34,000  Level FlightAware Transoceanic
Thu 02:42:00 PM 32.1271 -70.6668 349° North 447 514 34,000  Level FlightAware Transoceanic
Thu 02:43:00 PM 32.2504 -70.6959 349° North 447 514 34,000  Level FlightAware Transoceanic
Thu 02:44:00 PM 32.3737 -70.7251 349° North 447 514 34,000  Level FlightAware Transoceanic
Thu 02:45:00 PM 32.4970 -70.7544 349° North 447 514 34,000  Level FlightAware Transoceanic
Thu 02:46:00 PM 32.6203 -70.7838 349° North 447 514 34,000  Level FlightAware Transoceanic
Thu 02:47:00 PM 32.7436 -70.8133 349° North 447 514 34,000  Level FlightAware Transoceanic
Thu 02:48:00 PM 32.8669 -70.8429 349° North 447 514 34,000  Level FlightAware Transoceanic
Thu 02:49:00 PM 32.9902 -70.8725 349° North 447 514 34,000  Level FlightAware Transoceanic
Thu 02:50:00 PM 33.1134 -70.9022 349° North 447 514 34,000  Level FlightAware Transoceanic
Thu 02:51:00 PM 33.2367 -70.9320 349° North 447 514 34,000  Level FlightAware Transoceanic
Thu 02:52:00 PM 33.3600 -70.9619 349° North 447 514 34,000  Level FlightAware Transoceanic
Thu 02:53:00 PM 33.4832 -70.9919 349° North 447 514 34,000  Level FlightAware Transoceanic
Thu 02:54:00 PM 33.6064 -71.0219 349° North 447 514 34,000  Level FlightAware Transoceanic
Thu 02:55:00 PM 33.7297 -71.0521 348° North 447 514 34,000  Level FlightAware Transoceanic
Thu 02:56:00 PM 33.8529 -71.0823 348° North 447 514 34,000  Level FlightAware Transoceanic
Thu 02:56:25 PM 33.6833 -71.0333 348° North 447 514 34,000  Level New York Oceanic (ODAPS)
Thu 02:57:00 PM 33.9761 -71.1126 348° North 447 514 34,000  Level FlightAware Transoceanic
Thu 02:58:00 PM 34.0993 -71.1430 348° North 447 514 34,000  Level FlightAware Transoceanic
Thu 02:59:00 PM 34.2225 -71.1735 348° North 447 514 34,000  Level FlightAware Transoceanic
Thu 03:00:00 PM 34.3457 -71.2041 348° North 447 514 34,000  Level FlightAware Transoceanic
Thu 03:01:00 PM 34.4689 -71.2348 348° North 447 514 34,000  Level FlightAware Transoceanic
Thu 03:02:00 PM 34.5921 -71.2655 348° North 447 514 34,000  Level FlightAware Transoceanic
Thu 03:03:00 PM 34.6817 -71.2825 348° North 447 514 34,000  Level FlightAware Transoceanic
Thu 03:04:00 PM 34.8065 -71.3141 348° North 447 514 34,000  Level FlightAware Transoceanic
Thu 03:05:00 PM 34.9313 -71.3458 348° North 447 514 34,000  Level FlightAware Transoceanic
Thu 03:06:00 PM 35.0560 -71.3775 348° North 447 514 34,000  Level FlightAware Transoceanic
Thu 03:07:00 PM 35.1808 -71.4094 348° North 447 514 34,000  Level FlightAware Transoceanic
Thu 03:08:00 PM 35.3055 -71.4414 348° North 447 514 34,000  Level FlightAware Transoceanic
Thu 03:09:00 PM 35.4302 -71.4734 348° North 447 514 34,000  Level FlightAware Transoceanic
Thu 03:10:00 PM 35.5549 -71.5056 348° North 447 514 34,000  Level FlightAware Transoceanic
Thu 03:11:00 PM 35.6796 -71.5378 348° North 447 514 34,000  Level FlightAware Transoceanic
Thu 03:11:04 PM 35.6333 -71.5333 348° North 437 503 34,000  Level New York Oceanic (ODAPS)
Thu 03:12:00 PM 35.8043 -71.5702 348° North 447 514 34,000  Level FlightAware Transoceanic
Thu 03:13:00 PM 35.9290 -71.6027 348° North 447 514 34,000  Level FlightAware Transoceanic
Thu 03:14:00 PM 36.0537 -71.6352 348° North 447 514 34,000  Level FlightAware Transoceanic
Thu 03:15:00 PM 36.1784 -71.6679 348° North 447 514 34,000  Level FlightAware Transoceanic
Thu 03:16:00 PM 36.3030 -71.7007 348° North 447 514 34,000  Level FlightAware Transoceanic
Thu 03:17:00 PM 36.4669 -71.7477 348° North 437 503 34,000  Level FlightAware Transoceanic
Thu 03:18:00 PM 36.5859 -71.7787 348° North 437 503 34,000  Level FlightAware Transoceanic
Thu 03:19:00 PM 36.7049 -71.8098 348° North 437 503 34,000  Level FlightAware Transoceanic
Thu 03:20:00 PM 36.8240 -71.8409 348° North 437 503 34,000  Level FlightAware Transoceanic
Thu 03:21:00 PM 36.9430 -71.8722 348° North 437 503 34,000  Level FlightAware Transoceanic
Thu 03:21:35 PM 37.0872 -71.8992 358° North 458 527 34,000  Level New York Center
Thu 03:22:00 PM 37.0620 -71.9036 348° North 437 503 34,000  Level FlightAware Transoceanic
Thu 03:22:35 PM 37.2186 -71.9089 357° North 464 534 34,000  Level New York Center
Thu 03:23:00 PM 37.1810 -71.9351 348° North 437 503 34,000  Level FlightAware Transoceanic
Thu 03:23:35 PM 37.3456 -71.9189 356° North 464 534 34,000  Level New York Center
Thu 03:24:00 PM 37.3000 -71.9667 358° North 437 503 34,000  Level FlightAware Transoceanic
Thu 03:24:34 PM 37.4792 -71.9289 357° North 464 534 34,000  Level New York Center
Thu 03:25:00 PM 37.4310 -71.9725 358° North 437 503 34,000  Level FlightAware Transoceanic
Thu 03:25:35 PM 37.6019 -71.9386 356° North 451 519 34,000  Level New York Center
Thu 03:26:35 PM 37.7228 -71.9539 354° North 451 519 34,000  Level New York Center
Thu 03:27:35 PM 37.8522 -71.9611 357° North 451 519 34,000  Level New York Center
Thu 03:28:36 PM 37.9856 -71.9661 358° North 456 525 34,000 -50 Level New York Center
Thu 03:29:35 PM 38.1147 -71.9761 357° North 463 533 33,900  Descending New York Center
Thu 03:30:36 PM 38.2461 -71.9836 357° North 463 533 34,000 -403 Climbing New York Center
Thu 03:31:34 PM 38.3775 -71.9911 357° North 463 533 33,100 -900 Descending New York Center
Thu 03:32:36 PM 38.5086 -72.0067 355° North 463 533 32,200 -934 Descending New York Center
Thu 03:33:36 PM 38.6442 -72.0117 358° North 468 539 31,200 -950 Descending New York Center
Thu 03:34:36 PM 38.7794 -72.0247 356° North 479 551 30,300 -8,746 Descending New York Center
Thu 03:35:34 PM 38.9150 -72.0353 357° North 484 557 14,000 -974 Descending New York Center
Thu 03:36:33 PM 39.0503 -72.0483 356° North 484 557 28,400 6,700 Climbing New York Center
Thu 03:37:34 PM 39.1728 -72.1042 341° North 467 537 27,400 -1,024 Descending New York Center
Thu 03:38:36 PM 39.2694 -72.2108 320° Northwest 449 517 26,300 -984 Descending New York Center
Thu 03:39:36 PM 39.3681 -72.3147 321° Northwest 449 517 25,400 -1,119 Descending New York Center
Thu 03:40:34 PM 39.4606 -72.4217 318° Northwest 454 522 24,100 -1,916 Descending New York Center
Thu 03:41:35 PM 39.5547 -72.5289 319° Northwest 454 522 21,600 -2,508 Descending New York Center
Thu 03:42:36 PM 39.6428 -72.6283 319° Northwest 443 510 19,000 -2,420 Descending New York Center
Thu 03:43:34 PM 39.7308 -72.7306 318° Northwest 432 497 16,800 -2,420 Descending New York Center
Thu 03:44:35 PM 39.8125 -72.8275 318° Northwest 417 480 14,200 -1,623 Descending New York Center
Thu 03:45:36 PM 39.8436 -72.9553 288° West 390 449 13,500 -1,636 Descending New York Center
Thu 03:46:36 PM 39.8742 -73.0944 286° West 369 425 10,900 -1,780 Descending New York Center
Thu 03:47:34 PM 39.8967 -73.2194 283° West 364 419 10,000 -454 Descending New York Center
Thu 03:48:35 PM 39.9208 -73.3475 284° West 364 419 10,000  Level New York Center
Thu 03:49:35 PM 39.9414 -73.4594 284° West 358 412 10,000  Level New York Center
Thu 03:50:35 PM 39.9656 -73.5847 284° West 358 412 10,000 -149 Level New York Center
Thu 03:51:36 PM 39.9839 -73.6858 283° West 330 380 9,700 -504 Descending New York Center
Thu 03:52:34 PM 40.0042 -73.7897 284° West 285 328 9,000 -303 Descending New York Center
Thu 03:53:35 PM 40.0692 -73.8550 322° Northwest 268 308 9,100 -500 Climbing New York Center
Thu 03:54:34 PM 40.1408 -73.8256 17° North 261 300 8,000 -1,325 Descending New York Center
Thu 03:54:52 PM 40.1667 -73.8167 15° North 307 353 7,400 -1,583 Descending New York TRACON
Thu 03:55:46 PM 40.2333 -73.7667 30° Northeast 300 345 6,100 -1,579 Descending New York TRACON
Thu 03:56:46 PM 40.3167 -73.7833 351° North 283 326 4,400 -1,450 Descending New York TRACON
Thu 03:57:46 PM 40.3667 -73.8500 315° West 258 297 3,200 -700 Descending New York TRACON
Thu 03:58:46 PM 40.4000 -73.9167 303° West 259 298 3,000 -150 Descending New York TRACON
Thu 03:59:46 PM 40.4500 -73.9833 315° West 223 257 2,900 -50 Descending New York TRACON
Thu 04:00:46 PM 40.5167 -73.9833 360° North 206 237 2,900 -250 Level New York TRACON
Thu 04:01:46 PM 40.5500 -73.9500 37° Northeast 199 229 2,400 -650 Descending New York TRACON
Thu 04:02:46 PM 40.6000 -73.9000 37° Northeast 183 211 1,600 -800 Descending New York TRACON
Thu 04:03:46 PM 40.6333 -73.8667 37° Northeast 165 190 800 -450 Descending New York TRACON
Thu 04:04:46 PM 40.6667 -73.8333 37° Northeast 141 162 700 -100 Descending New York TRACON

Login

Don't have an account? Register now (free) for customized features, flight alerts, and more!